Aeroporto :
LOGIN :

Iscrizione | Disclaimer

   EN    FR    IT 

 










Sommario :    VFR   VFR Marginale   IFR   IFR Intensivo   IFR Molto Intensivo
Visibilità : 
Base nubi : 
>= 8 km
>= 3000ft
5 / 8 km
1000 / 3000 ft
1500m / 5 km
500 / 1000 ft
800 / 1500m
200 / 500 ft
< 800m
< 200 ft
Simboli :   Temporali  Nebbia  Neve Forte  Precipitazioni Forti  Vento > 20 kt
SIGMETs :   Varie  Temporali  Ghiacco  Turbolenza  Onda orograficha  Ceneri Vulcaniche







- Altitudine del aeroporto : 19 ft
- Codice IATA : DJE


DTTJ - Djerba Zarzis

ULTIMO METAR :
  • 172200Z 12007KT CAVOK 25/19 Q1013 NOSIG

METARs OBSOLETI :
  • 172130Z 11007KT CAVOK 26/18 Q1013 NOSIG
  • 172100Z 12007KT CAVOK 26/18 Q1013 NOSIG
  • 172030Z 11007KT CAVOK 26/18 Q1013 NOSIG
  • 172000Z 11009KT CAVOK 26/18 Q1013 NOSIG
  • 171930Z 10010KT CAVOK 27/17 Q1013 NOSIG

TAF TAF DTTJ
Valido dal 17 a 18 ore il 18 a 18 ore UTC


171700Z 1718/1818 10011KT 9999 FEW023
BECMG 1722/1724 16010KT
Nessun NOTAM noto per questo aeroporto.



MetMap, La meteo Aeronautica in un colpo d'occhio ! - Copyright ORBIFLY Dicembre 2007 - Disclaimer

ORBIFLY MET'MAP TEAM :

Programmazione e sviluppo : Alexandra Zaïnal
Concezione e sviluppo : Baudouin d'Aumeries
Co-Programmazione e sviluppo : Marc-Olivier Méhu
Supporto tecnico e logistico : Manuel Goepfert
Aiuto per la traduzione : Arnaldo La Scala

Contatto : metmap@orbifly.com




FONTI E CREDITI :

   NOAA